Time;durP1;ratioP1;P1;durP2;ratioP2;P2;SDS_P1;SDS_P2;PMS_P1;PMS_P2;Temp;Humidity;BMP_temperature;BMP_pressure;BME280_temperature;BME280_humidity;BME280_pressure;Samples;Min_cycle;Max_cycle;Signal;HPM_P1;HPM_P2
2022/03/26 00:02:06;;;;;;;;;;;;;;;18.65;43.25;103194.63;5124013;28;19908;-57
2022/03/26 00:04:32;;;;;;;;;;;;;;;18.65;43.29;103204.53;5124391;28;19908;-55
2022/03/26 00:06:57;;;;;;;;;;;;;;;18.64;43.05;103203.66;5124447;28;19978;-57
2022/03/26 00:09:22;;;;;;;;;;;;;;;18.63;43.14;103210.00;5124010;28;19912;-57
2022/03/26 00:11:47;;;;;;;;;;;;;;;18.63;43.36;103211.84;5123156;28;19912;-56
2022/03/26 00:14:12;;;;;;;;;;;;;;;18.62;43.25;103215.53;5124439;28;20437;-55
2022/03/26 00:16:38;;;;;;;;;;;;;;;18.61;43.26;103214.66;5123898;28;19966;-54
2022/03/26 00:19:03;;;;;;;;;;;;;;;18.60;43.11;103214.75;5122825;28;19908;-56
2022/03/26 00:21:28;;;;;;;;;;;;;;;18.60;43.28;103217.44;5123798;28;19925;-57
2022/03/26 00:23:54;;;;;;;;;;;;;;;18.59;43.13;103215.75;5123565;28;19938;-55
2022/03/26 00:26:19;;;;;;;;;;;;;;;18.58;43.16;103220.28;5121836;28;19915;-56
2022/03/26 00:28:44;;;;;;;;;;;;;;;18.57;43.26;103210.47;5127055;28;20002;-55
2022/03/26 00:31:10;;;;;;;;;;;;;;;18.56;43.29;103211.41;5127642;28;19919;-56
2022/03/26 00:33:35;;;;;;;;;;;;;;;18.56;43.31;103218.63;5127428;28;19916;-56
2022/03/26 00:36:00;;;;;;;;;;;;;;;18.55;43.11;103223.16;5126530;28;19911;-55
2022/03/26 00:38:25;;;;;;;;;;;;;;;18.55;43.22;103216.94;5126261;28;19907;-55
2022/03/26 00:40:50;;;;;;;;;;;;;;;18.55;43.02;103225.00;5126760;28;19918;-53
2022/03/26 00:43:16;;;;;;;;;;;;;;;18.53;43.06;103224.28;5127628;28;19950;-56
2022/03/26 00:45:42;;;;;;;;;;;;;;;18.53;43.04;103218.88;5127423;27;19965;-57
2022/03/26 00:48:07;;;;;;;;;;;;;;;18.52;43.13;103230.59;5127429;28;19915;-55
2022/03/26 00:50:32;;;;;;;;;;;;;;;18.49;43.07;103221.78;5126886;28;19916;-55
2022/03/26 00:52:57;;;;;;;;;;;;;;;18.49;43.03;103219.09;5127324;28;19912;-54
2022/03/26 00:55:23;;;;;;;;;;;;;;;18.49;42.98;103216.41;5126360;28;19912;-56
2022/03/26 00:57:48;;;;;;;;;;;;;;;18.48;43.18;103219.22;5127463;28;19925;-55
2022/03/26 01:00:14;;;;;;;;;;;;;;;18.48;42.83;103216.53;5125363;28;19960;-55
2022/03/26 01:02:39;;;;;;;;;;;;;;;18.47;43.09;103217.47;5106524;28;19907;-54
2022/03/26 01:05:04;;;;;;;;;;;;;;;18.46;42.80;103218.44;5105536;28;19929;-54
2022/03/26 01:07:30;;;;;;;;;;;;;;;18.45;42.99;103206.81;5106760;28;19912;-57
2022/03/26 01:09:55;;;;;;;;;;;;;;;18.44;43.04;103209.63;5106378;28;19918;-57
2022/03/26 01:12:21;;;;;;;;;;;;;;;18.43;42.81;103207.88;5105436;28;19938;-54
2022/03/26 01:14:47;;;;;;;;;;;;;;;18.42;43.02;103207.03;5106698;28;20022;-57
2022/03/26 01:17:12;;;;;;;;;;;;;;;18.42;43.11;103201.63;5106307;28;19996;-56
2022/03/26 01:19:37;;;;;;;;;;;;;;;18.41;43.09;103208.00;5112992;28;19911;-57
2022/03/26 01:22:02;;;;;;;;;;;;;;;18.40;42.86;103208.13;5126556;28;19929;-55
2022/03/26 01:24:27;;;;;;;;;;;;;;;18.40;42.86;103202.75;5126660;28;19916;-57
2022/03/26 01:26:53;;;;;;;;;;;;;;;18.38;42.93;103205.53;5125885;28;19914;-56
2022/03/26 01:29:19;;;;;;;;;;;;;;;18.37;42.90;103203.81;5125745;28;19915;-56
2022/03/26 01:31:44;;;;;;;;;;;;;;;18.37;42.88;103201.13;5126181;28;20295;-57
2022/03/26 01:34:09;;;;;;;;;;;;;;;18.35;43.01;103197.69;5126596;28;19929;-57
2022/03/26 01:36:34;;;;;;;;;;;;;;;18.35;43.05;103197.69;5126812;28;20281;-57
2022/03/26 01:39:00;;;;;;;;;;;;;;;18.34;42.85;103198.63;5126268;28;20154;-57
2022/03/26 01:41:25;;;;;;;;;;;;;;;18.33;43.03;103202.31;5124198;28;20041;-57
2022/03/26 01:43:50;;;;;;;;;;;;;;;18.33;42.94;103207.69;5126527;27;19918;-57
2022/03/26 01:46:15;;;;;;;;;;;;;;;18.32;43.00;103197.91;5126225;28;19914;-58
2022/03/26 01:48:40;;;;;;;;;;;;;;;18.32;42.83;103205.13;5125842;28;19911;-57
2022/03/26 01:51:15;;;;;;;;;;;;;;;18.30;42.98;103205.19;5125870;28;20018;-56
2022/03/26 01:53:47;;;;;;;;;;;;;;;18.30;42.98;103202.50;5126228;28;19912;-57
2022/03/26 01:56:12;;;;;;;;;;;;;;;18.29;42.77;103200.78;5125431;28;19907;-57
2022/03/26 01:58:37;;;;;;;;;;;;;;;18.29;42.96;103202.63;5126239;28;20326;-57
2022/03/26 02:01:03;;;;;;;;;;;;;;;18.28;42.89;103198.22;5125838;28;19915;-57
2022/03/26 02:03:28;;;;;;;;;;;;;;;18.27;42.87;103196.50;5124449;28;19939;-57
2022/03/26 02:05:55;;;;;;;;;;;;;;;18.26;42.94;103195.63;5124548;28;19971;-55
2022/03/26 02:08:20;;;;;;;;;;;;;;;18.26;42.70;103194.75;5125853;28;19908;-53
2022/03/26 02:10:45;;;;;;;;;;;;;;;18.24;42.76;103195.75;5124844;28;19925;-56
2022/03/26 02:13:10;;;;;;;;;;;;;;;18.24;42.67;103198.44;5127069;28;19968;-55
2022/03/26 02:15:37;;;;;;;;;;;;;;;18.23;42.69;103194.03;5125887;28;19943;-57
2022/03/26 02:18:03;;;;;;;;;;;;;;;18.23;42.85;103193.16;5125693;28;19907;-56
2022/03/26 02:20:28;;;;;;;;;;;;;;;18.21;42.82;103187.88;5125549;27;19915;-55
2022/03/26 02:22:54;;;;;;;;;;;;;;;18.22;42.61;103188.72;5125381;28;19945;-56
2022/03/26 02:25:19;;;;;;;;;;;;;;;18.21;42.61;103195.94;5124888;28;19907;-56
2022/03/26 02:27:45;;;;;;;;;;;;;;;18.21;42.65;103197.78;5125371;28;20380;-56
2022/03/26 02:30:10;;;;;;;;;;;;;;;18.19;42.70;103192.53;5124209;28;19954;-53
2022/03/26 02:32:35;;;;;;;;;;;;;;;18.19;42.74;103192.53;5125271;28;20607;-55
2022/03/26 02:35:00;;;;;;;;;;;;;;;18.18;42.75;103190.81;5124926;28;20375;-57
2022/03/26 02:37:25;;;;;;;;;;;;;;;18.18;42.49;103198.88;5125185;28;19918;-57
2022/03/26 02:39:51;;;;;;;;;;;;;;;18.17;42.63;103193.59;5125249;28;19929;-57
2022/03/26 02:42:16;;;;;;;;;;;;;;;18.17;42.50;103198.97;5124304;28;19907;-57
2022/03/26 02:44:42;;;;;;;;;;;;;;;18.16;42.44;103197.25;5125220;28;20010;-57
2022/03/26 02:47:08;;;;;;;;;;;;;;;18.15;42.33;103196.41;5124973;28;19916;-56
2022/03/26 02:49:33;;;;;;;;;;;;;;;18.15;42.34;103199.09;5123493;28;20407;-54
2022/03/26 02:51:58;;;;;;;;;;;;;;;18.14;42.53;103191.13;5124290;28;19971;-56
2022/03/26 02:54:23;;;;;;;;;;;;;;;18.14;42.52;103193.81;5125298;28;20432;-56
2022/03/26 02:56:49;;;;;;;;;;;;;;;18.13;42.34;103187.53;5124058;28;19907;-57
2022/03/26 02:59:14;;;;;;;;;;;;;;;18.13;42.39;103179.47;5125299;28;19922;-57
2022/03/26 03:01:39;;;;;;;;;;;;;;;18.12;42.23;103188.53;5124645;28;19994;-57
2022/03/26 03:04:05;;;;;;;;;;;;;;;18.13;42.29;103189.38;5124908;28;20006;-57
2022/03/26 03:06:30;;;;;;;;;;;;;;;18.11;42.28;103186.81;5124636;28;19912;-57
2022/03/26 03:08:55;;;;;;;;;;;;;;;18.11;42.36;103189.50;5124628;28;19907;-57
2022/03/26 03:11:21;;;;;;;;;;;;;;;18.10;42.23;103177.00;5123807;28;19916;-57
2022/03/26 03:13:46;;;;;;;;;;;;;;;18.09;42.12;103188.72;5123633;28;19935;-57
2022/03/26 03:16:11;;;;;;;;;;;;;;;18.09;42.25;103183.34;5124829;28;19968;-57
2022/03/26 03:18:37;;;;;;;;;;;;;;;18.08;42.09;103187.00;5124871;28;19911;-55
2022/03/26 03:21:02;;;;;;;;;;;;;;;18.08;42.13;103187.00;5122488;28;19942;-56
2022/03/26 03:23:27;;;;;;;;;;;;;;;18.07;42.02;103179.06;5124475;28;19916;-56
2022/03/26 03:25:53;;;;;;;;;;;;;;;18.07;42.07;103181.75;5122425;28;19914;-57
2022/03/26 03:28:18;;;;;;;;;;;;;;;18.05;42.16;103187.22;5123307;28;19900;-54
2022/03/26 03:30:43;;;;;;;;;;;;;;;18.05;41.88;103180.97;5122805;28;19912;-57
2022/03/26 03:33:08;;;;;;;;;;;;;;;18.04;41.91;103187.34;5123961;28;20011;-57
2022/03/26 03:35:33;;;;;;;;;;;;;;;18.03;42.09;103186.47;5123132;28;19960;-57
2022/03/26 03:37:59;;;;;;;;;;;;;;;18.02;42.11;103190.16;5123030;28;19908;-57
2022/03/26 03:40:24;;;;;;;;;;;;;;;18.02;41.99;103191.97;5123666;28;19908;-56
2022/03/26 03:42:49;;;;;;;;;;;;;;;18.01;42.01;103191.13;5123894;28;19934;-56
2022/03/26 03:45:14;;;;;;;;;;;;;;;18.01;41.93;103192.94;5124411;28;19938;-57
2022/03/26 03:47:39;;;;;;;;;;;;;;;18.01;41.80;103190.25;5124270;28;19907;-58
2022/03/26 03:50:05;;;;;;;;;;;;;;;17.99;41.89;103198.44;5121615;28;19911;-57
2022/03/26 03:52:30;;;;;;;;;;;;;;;17.98;41.96;103192.19;5104664;28;19943;-57
2022/03/26 03:54:55;;;;;;;;;;;;;;;17.98;41.67;103184.13;5104301;28;19916;-56
2022/03/26 03:57:21;;;;;;;;;;;;;;;17.98;41.82;103180.56;5103204;28;19979;-57
2022/03/26 03:59:46;;;;;;;;;;;;;;;17.96;41.86;103177.97;5104103;28;19930;-58
2022/03/26 04:02:11;;;;;;;;;;;;;;;17.96;41.78;103177.97;5105526;28;19915;-57
2022/03/26 04:04:38;;;;;;;;;;;;;;;17.95;41.77;103173.56;5107855;28;19930;-56
2022/03/26 04:07:03;;;;;;;;;;;;;;;17.94;41.90;103169.16;5108134;28;19914;-57
2022/03/26 04:09:28;;;;;;;;;;;;;;;17.94;41.79;103171.84;5107759;28;19936;-55
2022/03/26 04:11:54;;;;;;;;;;;;;;;17.93;41.87;103172.81;5106566;28;19912;-55
2022/03/26 04:14:19;;;;;;;;;;;;;;;17.92;41.81;103176.44;5107876;28;19908;-56
2022/03/26 04:16:44;;;;;;;;;;;;;;;17.92;41.79;103173.75;5107329;28;19908;-56
2022/03/26 04:19:10;;;;;;;;;;;;;;;17.91;41.66;103179.25;5111493;28;19918;-56
2022/03/26 04:21:36;;;;;;;;;;;;;;;17.90;41.74;103181.09;5127864;28;19967;-55
2022/03/26 04:24:01;;;;;;;;;;;;;;;17.90;41.57;103174.84;5127902;28;19942;-54
2022/03/26 04:26:26;;;;;;;;;;;;;;;17.90;41.54;103180.25;5126660;28;19908;-56
2022/03/26 04:28:51;;;;;;;;;;;;;;;17.89;41.60;103183.91;5128325;28;19953;-56
2022/03/26 04:31:16;;;;;;;;;;;;;;;17.88;41.45;103176.78;5127829;28;19916;-56
2022/03/26 04:33:42;;;;;;;;;;;;;;;17.87;41.49;103181.31;5126527;28;19918;-57
2022/03/26 04:36:07;;;;;;;;;;;;;;;17.86;41.59;103174.19;5127941;28;19907;-56
2022/03/26 04:38:32;;;;;;;;;;;;;;;17.86;41.64;103168.81;5127519;28;20386;-56
2022/03/26 04:40:57;;;;;;;;;;;;;;;17.85;41.63;103171.63;5126685;28;19908;-56
2022/03/26 04:43:23;;;;;;;;;;;;;;;17.85;41.63;103172.50;5127520;28;19918;-55
2022/03/26 04:45:49;;;;;;;;;;;;;;;17.83;41.50;103171.72;5127575;28;19942;-57
2022/03/26 04:48:14;;;;;;;;;;;;;;;17.83;41.44;103176.25;5127558;28;19908;-55
2022/03/26 04:50:39;;;;;;;;;;;;;;;17.82;41.38;103178.06;5126948;28;19922;-54
2022/03/26 04:53:05;;;;;;;;;;;;;;;17.82;41.38;103174.53;5127603;28;19971;-56
2022/03/26 04:55:30;;;;;;;;;;;;;;;17.80;41.34;103177.34;5127023;28;19919;-55
2022/03/26 04:57:55;;;;;;;;;;;;;;;17.80;41.44;103177.34;5125718;28;19908;-55
2022/03/26 05:00:22;;;;;;;;;;;;;;;17.80;41.51;103180.03;5127433;28;19919;-56
2022/03/26 05:02:47;;;;;;;;;;;;;;;17.79;41.41;103175.59;5127055;28;19929;-55
2022/03/26 05:05:13;;;;;;;;;;;;;;;17.78;41.46;103171.19;5127403;28;19908;-56
2022/03/26 05:07:47;;;;;;;;;;;;;;;17.79;41.38;103180.09;5127065;28;19907;-56
2022/03/26 05:10:12;;;;;;;;;;;;;;;17.78;41.20;103181.09;5127065;28;19907;-56
2022/03/26 05:12:37;;;;;;;;;;;;;;;17.77;41.27;103182.06;5125986;28;19943;-55
2022/03/26 05:15:03;;;;;;;;;;;;;;;17.77;41.37;103182.06;5126483;28;19915;-55
2022/03/26 05:17:28;;;;;;;;;;;;;;;17.74;41.32;103186.66;5126870;28;20451;-56
2022/03/26 05:19:53;;;;;;;;;;;;;;;17.75;41.06;103182.16;5126751;28;19918;-56
2022/03/26 05:22:18;;;;;;;;;;;;;;;17.74;41.10;103181.28;5126664;28;19907;-56
2022/03/26 05:24:43;;;;;;;;;;;;;;;17.72;41.21;103179.66;5126523;27;19938;-55
2022/03/26 05:27:09;;;;;;;;;;;;;;;17.71;41.12;103176.09;5126058;27;19908;-55
2022/03/26 05:29:34;;;;;;;;;;;;;;;17.70;41.19;103168.97;5127028;28;19912;-56
2022/03/26 05:31:59;;;;;;;;;;;;;;;17.70;41.00;103185.13;5125079;28;19954;-55
2022/03/26 05:34:24;;;;;;;;;;;;;;;17.70;41.01;103192.34;5126862;28;19908;-56
2022/03/26 05:36:50;;;;;;;;;;;;;;;17.69;41.27;103187.94;5126301;28;19967;-54
2022/03/26 05:39:15;;;;;;;;;;;;;;;17.69;41.30;103188.78;5123145;28;19912;-55
2022/03/26 05:41:41;;;;;;;;;;;;;;;17.68;41.74;103187.06;5125110;28;19916;-55
2022/03/26 05:44:06;;;;;;;;;;;;;;;17.66;41.71;103188.97;5126053;28;19939;-54
2022/03/26 05:46:31;;;;;;;;;;;;;;;17.65;41.96;103183.72;5123207;28;19907;-51
2022/03/26 05:48:56;;;;;;;;;;;;;;;17.64;41.76;103182.00;5120267;28;19918;-55
2022/03/26 05:51:21;;;;;;;;;;;;;;;17.63;42.00;103191.06;5122612;28;19919;-53
2022/03/26 05:53:49;;;;;;;;;;;;;;;17.63;42.12;103188.38;5123600;28;19919;-54
2022/03/26 05:56:15;;;;;;;;;;;;;;;17.62;41.94;103198.22;5118649;28;19915;-54
2022/03/26 05:58:40;;;;;;;;;;;;;;;17.61;42.24;103193.81;5105847;28;19908;-54
2022/03/26 06:01:05;;;;;;;;;;;;;;;17.60;42.35;103202.00;5119626;28;19961;-51
2022/03/26 06:03:31;;;;;;;;;;;;;;;17.60;42.29;103204.69;5124528;28;19960;-53
2022/03/26 06:05:58;;;;;;;;;;;;;;;17.59;42.18;103211.06;5118260;28;19965;-55
2022/03/26 06:08:23;;;;;;;;;;;;;;;17.59;42.44;103219.13;5119705;28;19927;-54
2022/03/26 06:10:48;;;;;;;;;;;;;;;17.59;42.30;103219.13;5121445;28;19915;-51
2022/03/26 06:13:13;;;;;;;;;;;;;;;17.58;42.39;103220.06;5125288;28;19907;-55
2022/03/26 06:15:38;;;;;;;;;;;;;;;17.58;42.31;103236.22;5125355;28;19928;-54
2022/03/26 06:18:04;;;;;;;;;;;;;;;17.57;42.42;103235.34;5122479;28;19908;-52
2022/03/26 06:20:29;;;;;;;;;;;;;;;17.57;42.32;103238.03;5119130;28;19915;-55
2022/03/26 06:22:54;;;;;;;;;;;;;;;17.56;42.46;103244.41;5119126;28;20664;-53
2022/03/26 06:25:20;;;;;;;;;;;;;;;17.56;42.60;103236.31;5123843;28;19907;-53
2022/03/26 06:27:46;;;;;;;;;;;;;;;17.56;42.47;103240.84;5118990;28;20616;-53
2022/03/26 06:30:11;;;;;;;;;;;;;;;17.57;42.49;103242.56;5122183;28;19928;-53
2022/03/26 06:32:37;;;;;;;;;;;;;;;17.56;42.69;103241.69;5119249;28;19960;-53
2022/03/26 06:35:02;;;;;;;;;;;;;;;17.56;42.59;103240.84;5124651;28;19912;-53
2022/03/26 06:37:27;;;;;;;;;;;;;;;17.56;42.49;103238.16;5124498;28;20237;-55
2022/03/26 06:39:52;;;;;;;;;;;;;;;17.55;42.46;103248.06;5119119;28;19936;-56
2022/03/26 06:42:18;;;;;;;;;;;;;;;17.56;42.65;103251.59;5112635;28;19971;-54
2022/03/26 06:44:43;;;;;;;;;;;;;;;17.56;42.64;103248.91;5116227;28;19919;-54
2022/03/26 06:47:08;;;;;;;;;;;;;;;17.55;42.46;103253.44;5118918;28;19940;-55
2022/03/26 06:49:34;;;;;;;;;;;;;;;17.54;42.68;103249.00;5121172;28;19908;-53
2022/03/26 06:51:59;;;;;;;;;;;;;;;17.55;42.58;103250.75;5120992;28;20431;-51
2022/03/26 06:54:25;;;;;;;;;;;;;;;17.55;42.59;103248.06;5123415;28;19908;-50
2022/03/26 06:56:50;;;;;;;;;;;;;;;17.55;42.59;103241.81;5120360;28;20376;-54
2022/03/26 06:59:15;;;;;;;;;;;;;;;17.56;42.65;103255.16;5117914;28;20418;-52
2022/03/26 07:01:41;;;;;;;;;;;;;;;17.55;42.60;103256.13;5109459;28;19916;-53
2022/03/26 07:04:06;;;;;;;;;;;;;;;17.56;42.51;103254.28;5121202;28;19914;-55
2022/03/26 07:06:31;;;;;;;;;;;;;;;17.55;42.46;103261.50;5121044;28;19911;-54
2022/03/26 07:08:57;;;;;;;;;;;;;;;17.56;42.66;103248.91;5119742;27;19907;-53
2022/03/26 07:11:22;;;;;;;;;;;;;;;17.57;42.56;103254.19;5122085;28;20337;-55
2022/03/26 07:13:47;;;;;;;;;;;;;;;17.57;42.61;103259.56;5124562;28;19908;-55
2022/03/26 07:16:12;;;;;;;;;;;;;;;17.58;42.41;103257.72;5124883;28;19908;-54
2022/03/26 07:18:38;;;;;;;;;;;;;;;17.59;42.49;103268.41;5124751;28;19907;-54
2022/03/26 07:21:03;;;;;;;;;;;;;;;17.60;42.60;103269.25;5124272;28;19951;-55
2022/03/26 07:23:28;;;;;;;;;;;;;;;17.61;42.33;103268.28;5121100;28;19916;-54
2022/03/26 07:25:53;;;;;;;;;;;;;;;17.62;42.50;103270.00;5123045;28;19914;-54
2022/03/26 07:28:19;;;;;;;;;;;;;;;17.63;42.33;103277.13;5116597;28;19900;-52
2022/03/26 07:30:44;;;;;;;;;;;;;;;17.62;42.42;103280.78;5114769;28;19912;-55
2022/03/26 07:33:09;;;;;;;;;;;;;;;17.62;42.40;103278.94;5120839;28;19930;-53
2022/03/26 07:35:34;;;;;;;;;;;;;;;17.62;42.33;103278.94;5118432;28;19961;-50
2022/03/26 07:38:00;;;;;;;;;;;;;;;17.61;42.41;103284.44;5130460;28;19978;-54
2022/03/26 07:40:25;;;;;;;;;;;;;;;17.63;42.14;103285.22;5130681;28;20014;-55
2022/03/26 07:42:50;;;;;;;;;;;;;;;17.62;42.31;103283.47;5130549;28;19914;-55
2022/03/26 07:45:15;;;;;;;;;;;;;;;17.63;42.34;103287.91;5128183;27;19934;-55
2022/03/26 07:47:40;;;;;;;;;;;;;;;17.63;42.33;103291.44;5110469;28;19968;-54
2022/03/26 07:50:06;;;;;;;;;;;;;;;17.64;42.21;103286.94;5110834;28;19933;-55
2022/03/26 07:52:31;;;;;;;;;;;;;;;17.64;42.22;103285.09;5110378;28;20346;-56
2022/03/26 07:54:56;;;;;;;;;;;;;;;17.65;42.05;103281.44;5112007;28;19908;-54
2022/03/26 07:57:22;;;;;;;;;;;;;;;17.66;42.15;103290.34;5130066;27;19919;-54
2022/03/26 07:59:47;;;;;;;;;;;;;;;17.66;42.13;103298.44;5131300;27;19908;-53
2022/03/26 08:02:12;;;;;;;;;;;;;;;17.67;42.16;103295.66;5130476;27;19937;-52
2022/03/26 08:04:38;;;;;;;;;;;;;;;17.67;42.11;103292.97;5130971;27;19908;-55
2022/03/26 08:07:03;;;;;;;;;;;;;;;17.68;42.16;103296.53;5130946;27;19960;-53
2022/03/26 08:09:28;;;;;;;;;;;;;;;17.68;42.16;103300.06;5130689;27;20356;-53
2022/03/26 08:11:54;;;;;;;;;;;;;;;17.68;41.88;103304.59;5129984;27;19912;-54
2022/03/26 08:14:19;;;;;;;;;;;;;;;17.69;42.00;103301.78;5131020;27;19908;-54
2022/03/26 08:16:44;;;;;;;;;;;;;;;17.69;41.86;103304.47;5130818;27;19915;-53
2022/03/26 08:19:09;;;;;;;;;;;;;;;17.70;42.00;103305.34;5131198;27;20006;-54
2022/03/26 08:21:35;;;;;;;;;;;;;;;17.70;42.00;103303.50;5130675;27;19908;-55
2022/03/26 08:24:03;;;;;;;;;;;;;;;17.71;42.02;103304.38;5130517;27;19970;-55
2022/03/26 08:26:29;;;;;;;;;;;;;;;17.72;41.71;103308.81;5129528;27;19912;-54
2022/03/26 08:28:55;;;;;;;;;;;;;;;17.72;41.91;103309.66;5131081;27;19918;-54
2022/03/26 08:31:21;;;;;;;;;;;;;;;17.74;41.91;103306.88;5130882;27;19912;-55
2022/03/26 08:33:47;;;;;;;;;;;;;;;17.74;41.81;103313.13;5130335;27;19908;-55
2022/03/26 08:36:13;;;;;;;;;;;;;;;17.75;41.78;103308.59;5127240;27;19914;-58
2022/03/26 08:38:38;;;;;;;;;;;;;;;17.75;41.75;103316.69;5129199;27;19933;-52
2022/03/26 08:41:04;;;;;;;;;;;;;;;17.77;41.93;103313.91;5129773;27;19967;-55
2022/03/26 08:43:29;;;;;;;;;;;;;;;17.69;41.71;103295.53;5130235;27;19914;-54
2022/03/26 08:45:55;;;;;;;;;;;;;;;17.78;41.95;103311.09;5124129;28;19908;-52
2022/03/26 08:48:20;;;;;;;;;;;;;;;17.79;41.93;103310.13;5124630;27;19907;-55
2022/03/26 08:50:45;;;;;;;;;;;;;;;17.79;41.85;103307.44;5123867;28;19918;-56
2022/03/26 08:53:10;;;;;;;;;;;;;;;17.80;41.65;103306.50;5123823;28;19919;-57
2022/03/26 08:55:35;;;;;;;;;;;;;;;17.82;41.77;103312.63;5125902;28;19915;-56
2022/03/26 08:58:01;;;;;;;;;;;;;;;17.83;41.92;103303.56;5127024;28;19911;-55
2022/03/26 09:00:27;;;;;;;;;;;;;;;17.83;41.70;103300.88;5126965;28;19908;-56
2022/03/26 09:02:52;;;;;;;;;;;;;;;17.85;41.79;103303.50;5126662;28;19908;-57
2022/03/26 09:05:17;;;;;;;;;;;;;;;17.86;41.77;103307.91;5126828;28;19908;-57
2022/03/26 09:07:42;;;;;;;;;;;;;;;17.87;41.74;103306.94;5127039;28;19907;-57
2022/03/26 09:10:07;;;;;;;;;;;;;;;17.89;41.57;103308.56;5126840;27;19908;-57
2022/03/26 09:12:33;;;;;;;;;;;;;;;17.89;41.77;103305.88;5125820;28;19911;-57
2022/03/26 09:14:58;;;;;;;;;;;;;;;17.90;41.83;103309.41;5127275;28;19933;-58
2022/03/26 09:17:23;;;;;;;;;;;;;;;17.89;41.76;103311.25;5125278;28;19912;-57
2022/03/26 09:19:49;;;;;;;;;;;;;;;17.89;41.80;103303.19;5126931;28;19908;-58
2022/03/26 09:22:14;;;;;;;;;;;;;;;17.90;41.86;103312.13;5126919;28;19911;-57
2022/03/26 09:24:39;;;;;;;;;;;;;;;17.91;41.85;103311.13;5126282;28;19920;-57
2022/03/26 09:27:04;;;;;;;;;;;;;;;17.90;41.56;103310.28;5125087;28;19987;-57
2022/03/26 09:29:29;;;;;;;;;;;;;;;17.91;41.87;103309.31;5126846;28;19914;-57
2022/03/26 09:31:55;;;;;;;;;;;;;;;17.91;41.76;103314.69;5126067;28;20015;-57
2022/03/26 09:34:20;;;;;;;;;;;;;;;17.92;41.68;103310.16;5126511;28;19916;-58
2022/03/26 09:36:45;;;;;;;;;;;;;;;17.91;41.71;103311.13;5126478;28;19930;-58
2022/03/26 09:39:10;;;;;;;;;;;;;;;17.91;41.42;103309.31;5126218;28;19912;-57
2022/03/26 09:41:35;;;;;;;;;;;;;;;17.92;41.49;103310.16;5125403;28;19907;-58
2022/03/26 09:44:01;;;;;;;;;;;;;;;17.92;41.55;103307.47;5125094;28;19960;-58
2022/03/26 09:46:26;;;;;;;;;;;;;;;17.92;41.43;103302.09;5124826;28;19915;-56
2022/03/26 09:48:52;;;;;;;;;;;;;;;17.92;41.61;103302.09;5126463;28;19912;-58
2022/03/26 09:51:19;;;;;;;;;;;;;;;17.92;41.68;103297.56;5126193;28;19911;-55
2022/03/26 09:53:44;;;;;;;;;;;;;;;17.92;41.59;103299.41;5124869;28;19914;-58
2022/03/26 09:56:10;;;;;;;;;;;;;;;17.92;41.36;103305.63;5124789;28;19982;-57
2022/03/26 09:58:35;;;;;;;;;;;;;;;17.92;41.63;103299.41;5126115;28;19928;-58
2022/03/26 10:01:00;;;;;;;;;;;;;;;17.91;41.46;103295.84;5125875;28;19908;-58
2022/03/26 10:03:26;;;;;;;;;;;;;;;17.91;41.54;103301.22;5125778;28;19915;-58
2022/03/26 10:06:00;;;;;;;;;;;;;;;17.91;41.65;103300.38;5125728;28;19942;-58
2022/03/26 10:08:26;;;;;;;;;;;;;;;17.91;41.58;103305.75;5125714;28;19907;-58
2022/03/26 10:10:51;;;;;;;;;;;;;;;17.90;41.72;103302.22;5125201;28;19964;-57
2022/03/26 10:13:35;;;;;;;;;;;;;;;17.90;41.59;103304.03;5124946;28;19908;-58
2022/03/26 10:16:10;;;;;;;;;;;;;;;17.89;41.68;103294.25;5125920;28;20390;-58
2022/03/26 10:18:39;;;;;;;;;;;;;;;17.89;41.74;103297.81;5125643;28;19943;-57
2022/03/26 10:21:13;;;;;;;;;;;;;;;17.89;41.75;103297.81;5125357;28;20535;-58
2022/03/26 10:23:45;;;;;;;;;;;;;;;17.89;41.43;103292.41;5125479;28;19919;-58
2022/03/26 10:26:15;;;;;;;;;;;;;;;17.89;41.70;103287.03;5124537;28;19907;-57
2022/03/26 10:28:40;;;;;;;;;;;;;;;17.90;41.82;103290.59;5125613;28;19942;-59
2022/03/26 10:34:09;;;;;;;;;;;;;;;17.88;41.93;103288.00;5115937;28;19934;-58
2022/03/26 10:36:35;;;;;;;;;;;;;;;17.87;41.91;103286.25;5104868;28;19914;-57
2022/03/26 10:39:00;;;;;;;;;;;;;;;17.80;41.91;103281.38;5104792;28;19908;-58
2022/03/26 10:41:25;;;;;;;;;;;;;;;17.86;41.94;103289.91;5103886;28;19933;-57
2022/03/26 10:44:04;;;;;;;;;;;;;;;17.85;41.91;103285.50;5119758;28;19959;-58
2022/03/26 10:46:29;;;;;;;;;;;;;;;17.86;41.84;103283.69;5111736;28;19946;-57
2022/03/26 10:49:01;;;;;;;;;;;;;;;17.84;41.79;103286.50;5121025;28;20590;-58
2022/03/26 10:51:26;;;;;;;;;;;;;;;17.85;41.85;103281.97;5118592;28;19916;-57
2022/03/26 10:53:54;;;;;;;;;;;;;;;17.85;41.98;103284.66;5108972;28;19967;-57
2022/03/26 10:56:19;;;;;;;;;;;;;;;17.84;41.98;103278.41;5123415;28;19914;-57
2022/03/26 10:58:44;;;;;;;;;;;;;;;17.85;41.96;103277.44;5123760;28;19996;-59
2022/03/26 11:01:09;;;;;;;;;;;;;;;17.84;42.20;103281.09;5114795;28;19919;-56
2022/03/26 11:03:35;;;;;;;;;;;;;;;17.85;42.25;103277.44;5104272;28;19999;-56
2022/03/26 11:06:01;;;;;;;;;;;;;;;17.85;42.09;103271.19;5119503;28;19908;-57
2022/03/26 11:08:29;;;;;;;;;;;;;;;17.86;42.24;103278.31;5124096;28;19968;-57
2022/03/26 11:10:59;;;;;;;;;;;;;;;17.85;42.34;103274.75;5123154;28;19911;-56
2022/03/26 11:13:25;;;;;;;;;;;;;;;17.86;42.35;103275.59;5115611;28;19934;-57
2022/03/26 11:15:54;;;;;;;;;;;;;;;17.86;42.23;103270.22;5104186;28;19971;-57
2022/03/26 11:18:27;;;;;;;;;;;;;;;17.86;42.43;103260.31;5112670;28;19908;-57
2022/03/26 11:21:11;;;;;;;;;;;;;;;17.85;42.44;103264.00;5122732;28;19907;-57
2022/03/26 11:23:42;;;;;;;;;;;;;;;17.86;42.53;103252.25;5123965;28;19916;-57
2022/03/26 11:26:10;;;;;;;;;;;;;;;17.86;42.47;103260.31;5122979;28;19929;-55
2022/03/26 11:28:42;;;;;;;;;;;;;;;17.86;42.48;103257.63;5124013;28;19908;-57
2022/03/26 11:31:09;;;;;;;;;;;;;;;17.88;42.43;103260.19;5122750;28;19935;-57
2022/03/26 11:33:35;;;;;;;;;;;;;;;17.88;42.66;103261.09;5122419;28;19907;-57
2022/03/26 11:36:00;;;;;;;;;;;;;;;17.88;42.55;103254.81;5123716;28;19990;-57
2022/03/26 11:38:30;;;;;;;;;;;;;;;17.88;42.61;103247.63;5123711;28;19961;-57
2022/03/26 11:40:56;;;;;;;;;;;;;;;17.89;42.71;103248.50;5122698;28;19914;-57
2022/03/26 11:43:55;;;;;;;;;;;;;;;17.89;42.80;103243.97;5108122;28;20092;-57
2022/03/26 11:52:12;;;;;;;;;;;;;;;17.89;43.16;103243.97;5120910;28;19918;-57
2022/03/26 11:54:37;;;;;;;;;;;;;;;17.90;43.14;103245.69;5123933;28;19908;-57
2022/03/26 11:57:12;;;;;;;;;;;;;;;17.91;43.20;103244.72;5122646;28;19908;-57
2022/03/26 11:59:38;;;;;;;;;;;;;;;17.91;43.17;103236.63;5123811;28;19963;-57
2022/03/26 12:02:23;;;;;;;;;;;;;;;17.92;43.47;103238.34;5123331;28;19908;-57
2022/03/26 12:04:53;;;;;;;;;;;;;;;17.93;43.34;103245.50;5123199;28;19968;-57
2022/03/26 12:07:19;;;;;;;;;;;;;;;17.94;43.37;103238.28;5121009;28;19912;-57
2022/03/26 12:09:45;;;;;;;;;;;;;;;17.95;43.39;103237.28;5123723;28;19914;-57
2022/03/26 12:12:10;;;;;;;;;;;;;;;17.97;43.33;103236.22;5122677;28;19916;-56
2022/03/26 12:14:36;;;;;;;;;;;;;;;17.98;43.47;103235.25;5123908;28;19912;-55
2022/03/26 12:17:03;;;;;;;;;;;;;;;18.01;43.52;103226.13;5122353;28;19912;-57
2022/03/26 12:19:48;;;;;;;;;;;;;;;18.02;43.59;103229.66;5123361;28;19915;-57
2022/03/26 12:22:17;;;;;;;;;;;;;;;18.04;43.56;103228.56;5107064;28;19931;-57
2022/03/26 12:24:43;;;;;;;;;;;;;;;18.07;43.75;103227.50;5123372;28;19975;-57
2022/03/26 12:27:08;;;;;;;;;;;;;;;18.08;43.66;103224.69;5126222;28;19908;-56
2022/03/26 12:29:37;;;;;;;;;;;;;;;18.10;43.61;103221.94;5113971;28;19908;-57
2022/03/26 12:32:02;;;;;;;;;;;;;;;18.12;43.89;103223.53;5123229;28;20006;-55
2022/03/26 12:34:28;;;;;;;;;;;;;;;18.15;44.00;103217.94;5126753;28;19908;-57
2022/03/26 12:36:58;;;;;;;;;;;;;;;18.18;43.76;103215.03;5125610;28;19907;-56
2022/03/26 12:39:23;;;;;;;;;;;;;;;18.21;43.99;103213.94;5123005;28;19975;-55